sensor_id;sensor_type;location;lat;lon;timestamp;temperature;humidity
50544;DHT22;41176;44.032;20.900;2023-01-19T00:01:13;13.20;86.20
50544;DHT22;41176;44.032;20.900;2023-01-19T00:03:39;13.10;85.00
50544;DHT22;41176;44.032;20.900;2023-01-19T00:06:06;13.20;85.30
50544;DHT22;41176;44.032;20.900;2023-01-19T00:08:31;13.20;86.30
50544;DHT22;41176;44.032;20.900;2023-01-19T00:10:57;13.20;86.00
50544;DHT22;41176;44.032;20.900;2023-01-19T00:13:23;13.00;87.00
50544;DHT22;41176;44.032;20.900;2023-01-19T00:15:48;13.00;87.20
50544;DHT22;41176;44.032;20.900;2023-01-19T00:18:14;13.00;87.70
50544;DHT22;41176;44.032;20.900;2023-01-19T00:20:40;12.90;88.10
50544;DHT22;41176;44.032;20.900;2023-01-19T00:23:06;12.90;88.50
50544;DHT22;41176;44.032;20.900;2023-01-19T00:25:32;12.90;88.50
50544;DHT22;41176;44.032;20.900;2023-01-19T00:27:59;12.90;89.10
50544;DHT22;41176;44.032;20.900;2023-01-19T00:30:24;12.90;88.70
50544;DHT22;41176;44.032;20.900;2023-01-19T00:32:50;12.90;88.80
50544;DHT22;41176;44.032;20.900;2023-01-19T00:35:16;12.80;89.90
50544;DHT22;41176;44.032;20.900;2023-01-19T00:37:41;12.80;89.80
50544;DHT22;41176;44.032;20.900;2023-01-19T00:40:11;12.70;90.30
50544;DHT22;41176;44.032;20.900;2023-01-19T00:42:38;12.70;90.50
50544;DHT22;41176;44.032;20.900;2023-01-19T00:45:29;12.70;90.80
50544;DHT22;41176;44.032;20.900;2023-01-19T00:47:54;12.70;91.10
50544;DHT22;41176;44.032;20.900;2023-01-19T00:50:22;12.60;92.30
50544;DHT22;41176;44.032;20.900;2023-01-19T00:52:48;12.60;92.70
50544;DHT22;41176;44.032;20.900;2023-01-19T00:55:15;12.60;93.10
50544;DHT22;41176;44.032;20.900;2023-01-19T00:57:41;12.50;94.10
50544;DHT22;41176;44.032;20.900;2023-01-19T01:00:09;12.40;94.90
50544;DHT22;41176;44.032;20.900;2023-01-19T01:02:36;12.30;96.60
50544;DHT22;41176;44.032;20.900;2023-01-19T01:05:03;12.20;97.80
50544;DHT22;41176;44.032;20.900;2023-01-19T01:07:31;12.20;99.60
50544;DHT22;41176;44.032;20.900;2023-01-19T01:10:10;12.10;99.90
50544;DHT22;41176;44.032;20.900;2023-01-19T01:12:37;12.00;99.90
50544;DHT22;41176;44.032;20.900;2023-01-19T01:15:05;12.00;99.90
50544;DHT22;41176;44.032;20.900;2023-01-19T01:17:31;11.90;99.90
50544;DHT22;41176;44.032;20.900;2023-01-19T01:19:57;11.90;99.90
50544;DHT22;41176;44.032;20.900;2023-01-19T01:22:22;11.90;99.90
50544;DHT22;41176;44.032;20.900;2023-01-19T01:24:48;11.90;99.90
50544;DHT22;41176;44.032;20.900;2023-01-19T01:27:13;11.90;99.90
50544;DHT22;41176;44.032;20.900;2023-01-19T01:29:39;11.80;99.90
50544;DHT22;41176;44.032;20.900;2023-01-19T01:32:07;11.80;99.90
50544;DHT22;41176;44.032;20.900;2023-01-19T01:34:33;11.70;99.90
50544;DHT22;41176;44.032;20.900;2023-01-19T01:36:59;11.50;99.90
50544;DHT22;41176;44.032;20.900;2023-01-19T01:39:24;11.40;99.90
50544;DHT22;41176;44.032;20.900;2023-01-19T01:41:50;11.40;99.90
50544;DHT22;41176;44.032;20.900;2023-01-19T01:44:50;11.20;99.90
50544;DHT22;41176;44.032;20.900;2023-01-19T01:50:09;11.10;99.90
50544;DHT22;41176;44.032;20.900;2023-01-19T01:52:39;11.10;99.90
50544;DHT22;41176;44.032;20.900;2023-01-19T01:55:08;11.20;99.90
50544;DHT22;41176;44.032;20.900;2023-01-19T01:57:37;11.10;99.90
50544;DHT22;41176;44.032;20.900;2023-01-19T02:00:04;11.20;99.90
50544;DHT22;41176;44.032;20.900;2023-01-19T02:02:32;11.20;99.90
50544;DHT22;41176;44.032;20.900;2023-01-19T02:05:25;11.20;99.90
50544;DHT22;41176;44.032;20.900;2023-01-19T02:08:11;11.10;99.90
50544;DHT22;41176;44.032;20.900;2023-01-19T02:10:57;11.20;99.90
50544;DHT22;41176;44.032;20.900;2023-01-19T02:13:43;11.30;99.90
50544;DHT22;41176;44.032;20.900;2023-01-19T02:16:13;11.20;99.90
50544;DHT22;41176;44.032;20.900;2023-01-19T02:18:40;11.20;99.90
50544;DHT22;41176;44.032;20.900;2023-01-19T02:21:37;11.20;99.90
50544;DHT22;41176;44.032;20.900;2023-01-19T02:24:07;11.10;99.90
50544;DHT22;41176;44.032;20.900;2023-01-19T02:26:37;11.20;99.90
50544;DHT22;41176;44.032;20.900;2023-01-19T02:29:06;11.20;99.90
50544;DHT22;41176;44.032;20.900;2023-01-19T02:31:34;11.10;99.90
50544;DHT22;41176;44.032;20.900;2023-01-19T02:34:02;11.00;99.90
50544;DHT22;41176;44.032;20.900;2023-01-19T02:36:39;11.00;99.90
50544;DHT22;41176;44.032;20.900;2023-01-19T02:39:07;11.00;99.90
50544;DHT22;41176;44.032;20.900;2023-01-19T02:41:40;11.00;99.90
50544;DHT22;41176;44.032;20.900;2023-01-19T02:44:08;11.10;99.90
50544;DHT22;41176;44.032;20.900;2023-01-19T02:46:35;11.10;99.90
50544;DHT22;41176;44.032;20.900;2023-01-19T02:49:01;10.90;99.90
50544;DHT22;41176;44.032;20.900;2023-01-19T02:51:27;10.90;99.90
50544;DHT22;41176;44.032;20.900;2023-01-19T02:54:17;10.90;99.90
50544;DHT22;41176;44.032;20.900;2023-01-19T03:10:30;10.80;99.90
50544;DHT22;41176;44.032;20.900;2023-01-19T03:13:17;10.80;99.90
50544;DHT22;41176;44.032;20.900;2023-01-19T03:18:11;10.90;99.90
50544;DHT22;41176;44.032;20.900;2023-01-19T03:20:39;10.80;99.90
50544;DHT22;41176;44.032;20.900;2023-01-19T03:23:09;10.80;99.90
50544;DHT22;41176;44.032;20.900;2023-01-19T03:25:41;10.90;99.90
50544;DHT22;41176;44.032;20.900;2023-01-19T03:28:07;10.90;99.90
50544;DHT22;41176;44.032;20.900;2023-01-19T03:30:38;10.90;99.90
50544;DHT22;41176;44.032;20.900;2023-01-19T03:33:11;10.80;99.90
50544;DHT22;41176;44.032;20.900;2023-01-19T03:35:50;10.90;99.90
50544;DHT22;41176;44.032;20.900;2023-01-19T03:38:24;10.90;99.90
50544;DHT22;41176;44.032;20.900;2023-01-19T03:40:55;10.90;99.90
50544;DHT22;41176;44.032;20.900;2023-01-19T03:43:24;10.80;99.90
50544;DHT22;41176;44.032;20.900;2023-01-19T03:45:52;10.70;99.90
50544;DHT22;41176;44.032;20.900;2023-01-19T03:48:20;10.60;99.90
50544;DHT22;41176;44.032;20.900;2023-01-19T03:50:46;10.60;99.90
50544;DHT22;41176;44.032;20.900;2023-01-19T03:53:14;10.50;99.90
50544;DHT22;41176;44.032;20.900;2023-01-19T03:55:43;10.50;99.90
50544;DHT22;41176;44.032;20.900;2023-01-19T03:58:10;10.50;99.90
50544;DHT22;41176;44.032;20.900;2023-01-19T04:00:36;10.40;99.90
50544;DHT22;41176;44.032;20.900;2023-01-19T04:03:09;10.30;99.90
50544;DHT22;41176;44.032;20.900;2023-01-19T04:05:36;10.40;99.90
50544;DHT22;41176;44.032;20.900;2023-01-19T04:08:02;10.30;99.90
50544;DHT22;41176;44.032;20.900;2023-01-19T04:10:28;10.30;99.90
50544;DHT22;41176;44.032;20.900;2023-01-19T04:13:00;10.40;99.90
50544;DHT22;41176;44.032;20.900;2023-01-19T04:15:26;10.20;99.90
50544;DHT22;41176;44.032;20.900;2023-01-19T04:17:53;10.30;99.90
50544;DHT22;41176;44.032;20.900;2023-01-19T04:20:21;10.30;99.90
50544;DHT22;41176;44.032;20.900;2023-01-19T04:22:47;10.30;99.90
50544;DHT22;41176;44.032;20.900;2023-01-19T04:25:14;10.30;99.90
50544;DHT22;41176;44.032;20.900;2023-01-19T04:27:40;10.20;99.90
50544;DHT22;41176;44.032;20.900;2023-01-19T04:30:06;10.10;99.90
50544;DHT22;41176;44.032;20.900;2023-01-19T04:32:32;10.20;99.90
50544;DHT22;41176;44.032;20.900;2023-01-19T04:34:58;10.30;99.90
50544;DHT22;41176;44.032;20.900;2023-01-19T04:37:24;10.30;99.90
50544;DHT22;41176;44.032;20.900;2023-01-19T04:39:49;10.30;99.90
50544;DHT22;41176;44.032;20.900;2023-01-19T04:42:15;10.20;99.90
50544;DHT22;41176;44.032;20.900;2023-01-19T04:44:41;10.10;99.90
50544;DHT22;41176;44.032;20.900;2023-01-19T04:47:07;10.10;99.90
50544;DHT22;41176;44.032;20.900;2023-01-19T04:49:33;10.10;99.90
50544;DHT22;41176;44.032;20.900;2023-01-19T04:52:02;10.10;99.90
50544;DHT22;41176;44.032;20.900;2023-01-19T04:54:28;10.10;99.90
50544;DHT22;41176;44.032;20.900;2023-01-19T04:56:54;10.20;99.90
50544;DHT22;41176;44.032;20.900;2023-01-19T04:59:20;10.10;99.90
50544;DHT22;41176;44.032;20.900;2023-01-19T05:01:46;10.10;99.90
50544;DHT22;41176;44.032;20.900;2023-01-19T05:04:12;10.10;99.90
50544;DHT22;41176;44.032;20.900;2023-01-19T05:06:37;10.00;99.90
50544;DHT22;41176;44.032;20.900;2023-01-19T05:09:03;9.90;99.90
50544;DHT22;41176;44.032;20.900;2023-01-19T05:11:29;9.90;99.90
50544;DHT22;41176;44.032;20.900;2023-01-19T05:13:55;10.00;99.90
50544;DHT22;41176;44.032;20.900;2023-01-19T05:16:21;10.00;99.90
50544;DHT22;41176;44.032;20.900;2023-01-19T05:18:46;9.90;99.90
50544;DHT22;41176;44.032;20.900;2023-01-19T05:21:12;9.90;99.90
50544;DHT22;41176;44.032;20.900;2023-01-19T05:23:37;9.80;99.90
50544;DHT22;41176;44.032;20.900;2023-01-19T05:26:03;9.90;99.90
50544;DHT22;41176;44.032;20.900;2023-01-19T05:28:31;10.00;99.90
50544;DHT22;41176;44.032;20.900;2023-01-19T05:30:57;10.10;99.90
50544;DHT22;41176;44.032;20.900;2023-01-19T05:33:23;10.10;99.90
50544;DHT22;41176;44.032;20.900;2023-01-19T05:35:50;10.10;99.90
50544;DHT22;41176;44.032;20.900;2023-01-19T05:38:17;10.10;99.90
50544;DHT22;41176;44.032;20.900;2023-01-19T05:40:43;10.10;99.90
50544;DHT22;41176;44.032;20.900;2023-01-19T05:43:09;10.10;99.90
50544;DHT22;41176;44.032;20.900;2023-01-19T05:45:35;10.10;99.90
50544;DHT22;41176;44.032;20.900;2023-01-19T05:48:03;10.10;99.90
50544;DHT22;41176;44.032;20.900;2023-01-19T05:50:30;10.00;99.90
50544;DHT22;41176;44.032;20.900;2023-01-19T05:52:55;10.10;99.90
50544;DHT22;41176;44.032;20.900;2023-01-19T05:55:21;10.10;99.90
50544;DHT22;41176;44.032;20.900;2023-01-19T05:57:47;10.20;99.90
50544;DHT22;41176;44.032;20.900;2023-01-19T06:00:13;10.20;99.90
50544;DHT22;41176;44.032;20.900;2023-01-19T06:02:39;10.20;99.90
50544;DHT22;41176;44.032;20.900;2023-01-19T06:05:05;10.20;99.90
50544;DHT22;41176;44.032;20.900;2023-01-19T06:07:31;10.30;99.90
50544;DHT22;41176;44.032;20.900;2023-01-19T06:09:57;10.20;99.90
50544;DHT22;41176;44.032;20.900;2023-01-19T06:12:23;10.20;99.90
50544;DHT22;41176;44.032;20.900;2023-01-19T06:14:48;10.30;99.90
50544;DHT22;41176;44.032;20.900;2023-01-19T06:17:15;10.20;99.90
50544;DHT22;41176;44.032;20.900;2023-01-19T06:19:41;10.20;99.90
50544;DHT22;41176;44.032;20.900;2023-01-19T06:22:07;10.10;99.90
50544;DHT22;41176;44.032;20.900;2023-01-19T06:24:33;10.00;99.90
50544;DHT22;41176;44.032;20.900;2023-01-19T06:26:59;10.00;99.90
50544;DHT22;41176;44.032;20.900;2023-01-19T06:29:26;10.00;99.90
50544;DHT22;41176;44.032;20.900;2023-01-19T06:31:52;10.00;99.90
50544;DHT22;41176;44.032;20.900;2023-01-19T06:34:18;10.00;99.90
50544;DHT22;41176;44.032;20.900;2023-01-19T06:36:44;10.00;99.90
50544;DHT22;41176;44.032;20.900;2023-01-19T06:39:11;10.00;99.90
50544;DHT22;41176;44.032;20.900;2023-01-19T06:41:36;10.00;99.90
50544;DHT22;41176;44.032;20.900;2023-01-19T06:44:03;10.00;99.90
50544;DHT22;41176;44.032;20.900;2023-01-19T06:46:29;10.00;99.90
50544;DHT22;41176;44.032;20.900;2023-01-19T06:48:55;10.00;99.90
50544;DHT22;41176;44.032;20.900;2023-01-19T06:51:21;10.10;99.90
50544;DHT22;41176;44.032;20.900;2023-01-19T06:53:47;10.20;99.90
50544;DHT22;41176;44.032;20.900;2023-01-19T06:56:12;10.20;99.90
50544;DHT22;41176;44.032;20.900;2023-01-19T06:58:38;10.20;99.90
50544;DHT22;41176;44.032;20.900;2023-01-19T07:01:07;10.20;99.90
50544;DHT22;41176;44.032;20.900;2023-01-19T07:03:33;10.20;99.90
50544;DHT22;41176;44.032;20.900;2023-01-19T07:05:59;10.30;99.90
50544;DHT22;41176;44.032;20.900;2023-01-19T07:08:27;10.40;99.90
50544;DHT22;41176;44.032;20.900;2023-01-19T07:11:01;10.40;99.90
50544;DHT22;41176;44.032;20.900;2023-01-19T07:13:29;10.50;99.90
50544;DHT22;41176;44.032;20.900;2023-01-19T07:15:55;10.50;99.90
50544;DHT22;41176;44.032;20.900;2023-01-19T07:18:20;10.50;99.90
50544;DHT22;41176;44.032;20.900;2023-01-19T07:20:46;10.60;99.90
50544;DHT22;41176;44.032;20.900;2023-01-19T07:23:16;10.70;99.90
50544;DHT22;41176;44.032;20.900;2023-01-19T07:25:45;10.80;99.90
50544;DHT22;41176;44.032;20.900;2023-01-19T07:28:11;10.90;99.90
50544;DHT22;41176;44.032;20.900;2023-01-19T07:30:41;10.90;99.90
50544;DHT22;41176;44.032;20.900;2023-01-19T07:33:07;11.00;99.90
50544;DHT22;41176;44.032;20.900;2023-01-19T07:35:33;11.20;99.90
50544;DHT22;41176;44.032;20.900;2023-01-19T07:37:58;11.40;99.90
50544;DHT22;41176;44.032;20.900;2023-01-19T07:40:24;11.60;99.90
50544;DHT22;41176;44.032;20.900;2023-01-19T07:42:50;11.70;99.90
50544;DHT22;41176;44.032;20.900;2023-01-19T07:45:17;11.70;99.90
50544;DHT22;41176;44.032;20.900;2023-01-19T07:47:44;11.70;99.90
50544;DHT22;41176;44.032;20.900;2023-01-19T07:50:11;11.70;99.90
50544;DHT22;41176;44.032;20.900;2023-01-19T07:52:37;11.80;99.90
50544;DHT22;41176;44.032;20.900;2023-01-19T07:55:02;11.70;99.90
50544;DHT22;41176;44.032;20.900;2023-01-19T07:57:28;11.80;99.90
50544;DHT22;41176;44.032;20.900;2023-01-19T07:59:54;11.80;99.90
50544;DHT22;41176;44.032;20.900;2023-01-19T08:02:19;11.90;99.90
50544;DHT22;41176;44.032;20.900;2023-01-19T08:04:48;12.00;99.90
50544;DHT22;41176;44.032;20.900;2023-01-19T08:07:14;12.00;99.90
50544;DHT22;41176;44.032;20.900;2023-01-19T08:09:40;12.10;99.90
50544;DHT22;41176;44.032;20.900;2023-01-19T08:12:05;12.10;99.90
50544;DHT22;41176;44.032;20.900;2023-01-19T08:14:31;12.10;99.90
50544;DHT22;41176;44.032;20.900;2023-01-19T08:17:01;12.20;99.90
50544;DHT22;41176;44.032;20.900;2023-01-19T08:19:27;12.20;99.90
50544;DHT22;41176;44.032;20.900;2023-01-19T08:21:53;12.20;99.90
50544;DHT22;41176;44.032;20.900;2023-01-19T08:24:20;12.30;99.90
50544;DHT22;41176;44.032;20.900;2023-01-19T08:26:48;12.30;99.90
50544;DHT22;41176;44.032;20.900;2023-01-19T08:29:14;12.30;99.90
50544;DHT22;41176;44.032;20.900;2023-01-19T08:31:40;12.30;99.90
50544;DHT22;41176;44.032;20.900;2023-01-19T08:34:07;12.30;99.90
50544;DHT22;41176;44.032;20.900;2023-01-19T08:36:33;12.40;99.90
50544;DHT22;41176;44.032;20.900;2023-01-19T08:38:59;12.40;99.90
50544;DHT22;41176;44.032;20.900;2023-01-19T08:41:25;12.40;99.90
50544;DHT22;41176;44.032;20.900;2023-01-19T08:43:51;12.30;99.90
50544;DHT22;41176;44.032;20.900;2023-01-19T08:46:16;12.40;99.90
50544;DHT22;41176;44.032;20.900;2023-01-19T08:48:45;12.30;99.90
50544;DHT22;41176;44.032;20.900;2023-01-19T08:51:12;12.40;99.90
50544;DHT22;41176;44.032;20.900;2023-01-19T08:53:40;12.50;99.90
50544;DHT22;41176;44.032;20.900;2023-01-19T08:56:08;12.50;98.70
50544;DHT22;41176;44.032;20.900;2023-01-19T08:58:39;12.50;99.00
50544;DHT22;41176;44.032;20.900;2023-01-19T09:01:06;12.60;98.40
50544;DHT22;41176;44.032;20.900;2023-01-19T09:03:33;12.60;97.10
50544;DHT22;41176;44.032;20.900;2023-01-19T09:06:00;12.70;96.50
50544;DHT22;41176;44.032;20.900;2023-01-19T09:08:25;12.70;97.20
50544;DHT22;41176;44.032;20.900;2023-01-19T09:10:51;12.80;96.10
50544;DHT22;41176;44.032;20.900;2023-01-19T09:13:18;12.80;95.50
50544;DHT22;41176;44.032;20.900;2023-01-19T09:15:44;12.80;94.80
50544;DHT22;41176;44.032;20.900;2023-01-19T09:18:13;12.90;95.50
50544;DHT22;41176;44.032;20.900;2023-01-19T09:20:39;12.90;94.20
50544;DHT22;41176;44.032;20.900;2023-01-19T09:23:08;12.90;94.10
50544;DHT22;41176;44.032;20.900;2023-01-19T09:25:36;12.90;94.10
50544;DHT22;41176;44.032;20.900;2023-01-19T09:28:04;13.00;94.10
50544;DHT22;41176;44.032;20.900;2023-01-19T09:30:29;13.00;94.70
50544;DHT22;41176;44.032;20.900;2023-01-19T09:33:04;13.10;95.10
50544;DHT22;41176;44.032;20.900;2023-01-19T09:35:32;13.10;94.50
50544;DHT22;41176;44.032;20.900;2023-01-19T09:37:57;13.20;94.90
50544;DHT22;41176;44.032;20.900;2023-01-19T09:40:23;13.10;93.60
50544;DHT22;41176;44.032;20.900;2023-01-19T09:42:54;13.10;93.40
50544;DHT22;41176;44.032;20.900;2023-01-19T09:45:43;13.00;94.20
50544;DHT22;41176;44.032;20.900;2023-01-19T09:51:08;13.00;93.40
50544;DHT22;41176;44.032;20.900;2023-01-19T09:53:48;13.00;93.60
50544;DHT22;41176;44.032;20.900;2023-01-19T09:56:17;13.00;93.30
50544;DHT22;41176;44.032;20.900;2023-01-19T09:58:44;13.10;92.80
50544;DHT22;41176;44.032;20.900;2023-01-19T10:20:29;13.20;91.60
50544;DHT22;41176;44.032;20.900;2023-01-19T10:22:58;13.30;91.90
50544;DHT22;41176;44.032;20.900;2023-01-19T10:25:25;13.30;91.50
50544;DHT22;41176;44.032;20.900;2023-01-19T10:27:51;13.40;91.70
50544;DHT22;41176;44.032;20.900;2023-01-19T10:30:27;13.40;91.20
50544;DHT22;41176;44.032;20.900;2023-01-19T10:32:53;13.50;91.30
50544;DHT22;41176;44.032;20.900;2023-01-19T10:35:21;13.60;91.90
50544;DHT22;41176;44.032;20.900;2023-01-19T10:37:55;13.60;90.80
50544;DHT22;41176;44.032;20.900;2023-01-19T10:40:32;13.60;90.90
50544;DHT22;41176;44.032;20.900;2023-01-19T10:42:59;13.70;89.90
50544;DHT22;41176;44.032;20.900;2023-01-19T10:45:27;13.70;88.30
50544;DHT22;41176;44.032;20.900;2023-01-19T10:47:59;13.80;89.80
50544;DHT22;41176;44.032;20.900;2023-01-19T10:50:31;13.70;89.00
50544;DHT22;41176;44.032;20.900;2023-01-19T10:52:59;13.60;88.00
50544;DHT22;41176;44.032;20.900;2023-01-19T10:55:31;13.80;89.50
50544;DHT22;41176;44.032;20.900;2023-01-19T10:57:58;13.80;87.10
50544;DHT22;41176;44.032;20.900;2023-01-19T11:00:39;13.70;87.50
50544;DHT22;41176;44.032;20.900;2023-01-19T11:03:28;13.70;87.50
50544;DHT22;41176;44.032;20.900;2023-01-19T11:08:41;13.70;87.30
50544;DHT22;41176;44.032;20.900;2023-01-19T11:11:07;13.70;86.10
50544;DHT22;41176;44.032;20.900;2023-01-19T11:13:34;13.70;85.70
50544;DHT22;41176;44.032;20.900;2023-01-19T11:18:35;14.00;84.20
50544;DHT22;41176;44.032;20.900;2023-01-19T11:21:03;14.20;84.70
50544;DHT22;41176;44.032;20.900;2023-01-19T11:23:46;14.50;84.30
50544;DHT22;41176;44.032;20.900;2023-01-19T11:29:17;14.50;83.80
50544;DHT22;41176;44.032;20.900;2023-01-19T11:31:44;14.30;82.40
50544;DHT22;41176;44.032;20.900;2023-01-19T11:34:31;14.20;83.30
50544;DHT22;41176;44.032;20.900;2023-01-19T11:39:57;14.20;83.70
50544;DHT22;41176;44.032;20.900;2023-01-19T11:42:23;14.20;84.00
50544;DHT22;41176;44.032;20.900;2023-01-19T11:45:04;14.10;83.00
50544;DHT22;41176;44.032;20.900;2023-01-19T11:47:47;14.10;84.10
50544;DHT22;41176;44.032;20.900;2023-01-19T11:50:30;14.00;84.70
50544;DHT22;41176;44.032;20.900;2023-01-19T11:53:05;13.90;83.30
50544;DHT22;41176;44.032;20.900;2023-01-19T11:55:32;14.00;84.40
50544;DHT22;41176;44.032;20.900;2023-01-19T11:58:02;13.90;84.60
50544;DHT22;41176;44.032;20.900;2023-01-19T12:00:39;13.90;84.20
50544;DHT22;41176;44.032;20.900;2023-01-19T12:05:40;13.60;84.10
50544;DHT22;41176;44.032;20.900;2023-01-19T12:08:13;13.70;84.60
50544;DHT22;41176;44.032;20.900;2023-01-19T12:10:44;13.70;84.40
50544;DHT22;41176;44.032;20.900;2023-01-19T12:13:27;13.50;84.60
50544;DHT22;41176;44.032;20.900;2023-01-19T12:16:04;13.50;84.70
50544;DHT22;41176;44.032;20.900;2023-01-19T12:18:39;13.40;85.50
50544;DHT22;41176;44.032;20.900;2023-01-19T12:21:05;13.40;86.00
50544;DHT22;41176;44.032;20.900;2023-01-19T12:27:22;13.40;84.20
50544;DHT22;41176;44.032;20.900;2023-01-19T12:29:21;13.40;83.60
50544;DHT22;41176;44.032;20.900;2023-01-19T12:34:49;13.30;84.30
50544;DHT22;41176;44.032;20.900;2023-01-19T12:37:40;13.30;84.10
50544;DHT22;41176;44.032;20.900;2023-01-19T12:40:27;13.20;84.20
50544;DHT22;41176;44.032;20.900;2023-01-19T12:45:23;13.20;81.60
50544;DHT22;41176;44.032;20.900;2023-01-19T12:47:51;13.20;82.40
50544;DHT22;41176;44.032;20.900;2023-01-19T12:50:19;13.30;82.80
50544;DHT22;41176;44.032;20.900;2023-01-19T12:52:53;13.40;82.70
50544;DHT22;41176;44.032;20.900;2023-01-19T12:55:26;13.50;82.60
50544;DHT22;41176;44.032;20.900;2023-01-19T12:58:05;13.50;82.20
50544;DHT22;41176;44.032;20.900;2023-01-19T13:03:03;13.90;80.90
50544;DHT22;41176;44.032;20.900;2023-01-19T13:18:57;13.50;80.10
50544;DHT22;41176;44.032;20.900;2023-01-19T13:21:42;13.40;80.30
50544;DHT22;41176;44.032;20.900;2023-01-19T13:24:11;13.40;80.30
50544;DHT22;41176;44.032;20.900;2023-01-19T13:26:42;13.40;78.80
50544;DHT22;41176;44.032;20.900;2023-01-19T13:29:32;13.40;78.50
50544;DHT22;41176;44.032;20.900;2023-01-19T13:32:19;13.60;79.90
50544;DHT22;41176;44.032;20.900;2023-01-19T13:34:53;13.50;78.00
50544;DHT22;41176;44.032;20.900;2023-01-19T13:37:32;13.40;79.00
50544;DHT22;41176;44.032;20.900;2023-01-19T13:39:59;13.40;79.00
50544;DHT22;41176;44.032;20.900;2023-01-19T13:42:39;13.40;78.80
50544;DHT22;41176;44.032;20.900;2023-01-19T13:45:16;13.40;78.40
50544;DHT22;41176;44.032;20.900;2023-01-19T13:47:47;13.50;77.90
50544;DHT22;41176;44.032;20.900;2023-01-19T13:50:25;13.60;75.70
50544;DHT22;41176;44.032;20.900;2023-01-19T13:52:52;13.60;74.50
50544;DHT22;41176;44.032;20.900;2023-01-19T13:55:20;13.70;74.70
50544;DHT22;41176;44.032;20.900;2023-01-19T13:57:47;13.70;75.30
50544;DHT22;41176;44.032;20.900;2023-01-19T14:00:18;13.80;74.70
50544;DHT22;41176;44.032;20.900;2023-01-19T14:03:14;13.90;74.10
50544;DHT22;41176;44.032;20.900;2023-01-19T14:05:43;13.90;74.30
50544;DHT22;41176;44.032;20.900;2023-01-19T14:10:57;14.00;74.50
50544;DHT22;41176;44.032;20.900;2023-01-19T14:13:32;13.80;75.00
50544;DHT22;41176;44.032;20.900;2023-01-19T14:16:07;13.60;75.70
50544;DHT22;41176;44.032;20.900;2023-01-19T14:18:36;13.60;77.20
50544;DHT22;41176;44.032;20.900;2023-01-19T14:21:12;13.70;76.90
50544;DHT22;41176;44.032;20.900;2023-01-19T14:23:50;13.60;74.70
50544;DHT22;41176;44.032;20.900;2023-01-19T14:26:42;13.60;74.60
50544;DHT22;41176;44.032;20.900;2023-01-19T14:31:43;13.70;75.20
50544;DHT22;41176;44.032;20.900;2023-01-19T14:37:02;13.60;75.80
50544;DHT22;41176;44.032;20.900;2023-01-19T14:39:31;13.60;76.90
50544;DHT22;41176;44.032;20.900;2023-01-19T14:42:00;13.60;76.20
50544;DHT22;41176;44.032;20.900;2023-01-19T14:46:55;13.50;76.10
50544;DHT22;41176;44.032;20.900;2023-01-19T14:49:33;13.50;75.50
50544;DHT22;41176;44.032;20.900;2023-01-19T14:52:03;13.50;75.10
50544;DHT22;41176;44.032;20.900;2023-01-19T14:54:34;13.40;76.30
50544;DHT22;41176;44.032;20.900;2023-01-19T14:57:03;13.30;76.60
50544;DHT22;41176;44.032;20.900;2023-01-19T14:59:29;13.30;77.50
50544;DHT22;41176;44.032;20.900;2023-01-19T15:01:54;13.20;77.90
50544;DHT22;41176;44.032;20.900;2023-01-19T15:04:20;13.10;79.10
50544;DHT22;41176;44.032;20.900;2023-01-19T15:06:47;13.10;79.60
50544;DHT22;41176;44.032;20.900;2023-01-19T15:09:14;13.10;80.10
50544;DHT22;41176;44.032;20.900;2023-01-19T15:11:40;13.00;80.30
50544;DHT22;41176;44.032;20.900;2023-01-19T15:14:12;13.00;81.00
50544;DHT22;41176;44.032;20.900;2023-01-19T15:16:39;12.90;81.30
50544;DHT22;41176;44.032;20.900;2023-01-19T15:19:05;12.90;81.90
50544;DHT22;41176;44.032;20.900;2023-01-19T15:21:30;12.80;82.50
50544;DHT22;41176;44.032;20.900;2023-01-19T15:23:56;12.80;82.80
50544;DHT22;41176;44.032;20.900;2023-01-19T15:26:24;12.80;82.90
50544;DHT22;41176;44.032;20.900;2023-01-19T15:28:51;12.70;83.10
50544;DHT22;41176;44.032;20.900;2023-01-19T15:31:19;12.70;83.90
50544;DHT22;41176;44.032;20.900;2023-01-19T15:33:45;12.60;83.10
50544;DHT22;41176;44.032;20.900;2023-01-19T15:36:12;12.60;82.60
50544;DHT22;41176;44.032;20.900;2023-01-19T15:38:38;12.50;83.40
50544;DHT22;41176;44.032;20.900;2023-01-19T15:41:12;12.40;83.50
50544;DHT22;41176;44.032;20.900;2023-01-19T15:43:39;12.40;83.30
50544;DHT22;41176;44.032;20.900;2023-01-19T15:46:05;12.40;83.40
50544;DHT22;41176;44.032;20.900;2023-01-19T15:48:31;12.30;83.30
50544;DHT22;41176;44.032;20.900;2023-01-19T15:50:57;12.30;83.70
50544;DHT22;41176;44.032;20.900;2023-01-19T15:53:22;12.30;83.50
50544;DHT22;41176;44.032;20.900;2023-01-19T15:55:52;12.30;84.00
50544;DHT22;41176;44.032;20.900;2023-01-19T15:58:19;12.40;84.10
50544;DHT22;41176;44.032;20.900;2023-01-19T16:00:54;12.40;84.40
50544;DHT22;41176;44.032;20.900;2023-01-19T16:03:21;12.50;85.50
50544;DHT22;41176;44.032;20.900;2023-01-19T16:05:46;12.40;86.30
50544;DHT22;41176;44.032;20.900;2023-01-19T16:08:12;12.40;87.10
50544;DHT22;41176;44.032;20.900;2023-01-19T16:10:39;12.30;87.40
50544;DHT22;41176;44.032;20.900;2023-01-19T16:13:05;12.30;87.60
50544;DHT22;41176;44.032;20.900;2023-01-19T16:15:34;12.20;87.70
50544;DHT22;41176;44.032;20.900;2023-01-19T16:18:00;12.10;88.00
50544;DHT22;41176;44.032;20.900;2023-01-19T16:20:26;12.10;87.90
50544;DHT22;41176;44.032;20.900;2023-01-19T16:22:52;12.00;88.00
50544;DHT22;41176;44.032;20.900;2023-01-19T16:25:18;12.00;88.10
50544;DHT22;41176;44.032;20.900;2023-01-19T16:27:45;11.90;88.90
50544;DHT22;41176;44.032;20.900;2023-01-19T16:30:11;11.90;89.10
50544;DHT22;41176;44.032;20.900;2023-01-19T16:32:37;11.90;89.10
50544;DHT22;41176;44.032;20.900;2023-01-19T16:35:03;11.80;89.60
50544;DHT22;41176;44.032;20.900;2023-01-19T16:37:29;11.80;90.50
50544;DHT22;41176;44.032;20.900;2023-01-19T16:39:55;11.70;90.50
50544;DHT22;41176;44.032;20.900;2023-01-19T16:42:20;11.70;90.60
50544;DHT22;41176;44.032;20.900;2023-01-19T16:44:46;11.70;90.80
50544;DHT22;41176;44.032;20.900;2023-01-19T16:47:12;11.70;90.90
50544;DHT22;41176;44.032;20.900;2023-01-19T16:49:37;11.70;91.00
50544;DHT22;41176;44.032;20.900;2023-01-19T16:52:03;11.70;91.00
50544;DHT22;41176;44.032;20.900;2023-01-19T16:54:29;11.70;91.00
50544;DHT22;41176;44.032;20.900;2023-01-19T16:56:56;11.70;91.00
50544;DHT22;41176;44.032;20.900;2023-01-19T16:59:23;11.70;91.30